createdAt,value
2023-05-18T00:00:58.141Z,101309.82
2023-05-18T00:03:32.656Z,101305.81
2023-05-18T00:06:13.501Z,101303.61
2023-05-18T00:09:04.350Z,101302.11
2023-05-18T00:11:41.793Z,101304.73
2023-05-18T00:14:18.113Z,101305.98
2023-05-18T00:16:58.351Z,101308.41
2023-05-18T00:19:34.018Z,101309.28
2023-05-18T00:22:08.127Z,101308.90
2023-05-18T00:24:56.415Z,101308.61
2023-05-18T00:27:32.240Z,101311.58
2023-05-18T00:30:06.708Z,101312.65
2023-05-18T00:32:42.457Z,101310.05
2023-05-18T00:35:29.037Z,101313.00
2023-05-18T00:38:02.820Z,101309.98
2023-05-18T00:40:33.848Z,101304.31
2023-05-18T00:43:07.863Z,101303.48
2023-05-18T00:45:43.385Z,101305.77
2023-05-18T00:48:16.482Z,101297.83
2023-05-18T00:50:47.421Z,101297.53
2023-05-18T00:53:26.357Z,101296.02
2023-05-18T00:56:01.366Z,101295.86
2023-05-18T00:58:34.479Z,101296.92
2023-05-18T01:01:17.940Z,101299.91
2023-05-18T01:04:08.814Z,101300.17
2023-05-18T01:07:17.228Z,101298.52
2023-05-18T01:09:51.172Z,101300.52
2023-05-18T01:12:45.155Z,101307.05
2023-05-18T01:15:40.384Z,101304.98
2023-05-18T01:18:57.225Z,101308.06
2023-05-18T01:22:04.132Z,101312.02
2023-05-18T01:24:56.898Z,101315.64
2023-05-18T01:27:29.570Z,101319.41
2023-05-18T01:30:00.945Z,101325.81
2023-05-18T01:32:43.144Z,101327.05
2023-05-18T01:35:22.665Z,101331.05
2023-05-18T01:37:53.937Z,101333.20
2023-05-18T01:40:26.796Z,101327.86
2023-05-18T01:43:15.760Z,101333.21
2023-05-18T01:46:00.269Z,101331.48
2023-05-18T01:48:43.081Z,101335.48
2023-05-18T01:51:20.837Z,101338.06
2023-05-18T01:54:08.658Z,101338.90
2023-05-18T01:56:47.911Z,101347.05
2023-05-18T01:59:26.646Z,101348.60
2023-05-18T02:02:10.544Z,101344.97
2023-05-18T02:04:53.323Z,101346.70
2023-05-18T02:07:46.224Z,101345.52
2023-05-18T02:10:31.682Z,101348.85
2023-05-18T02:13:12.801Z,101351.13
2023-05-18T02:15:56.537Z,101354.61
2023-05-18T02:18:42.306Z,101356.21
2023-05-18T02:21:26.283Z,101360.28
2023-05-18T02:24:01.879Z,101360.55
2023-05-18T02:26:41.807Z,101365.80
2023-05-18T02:29:12.703Z,101375.61
2023-05-18T02:31:46.989Z,101378.06
2023-05-18T02:34:22.874Z,101377.06
2023-05-18T02:37:08.126Z,101379.70
2023-05-18T02:39:41.530Z,101376.28
2023-05-18T02:42:14.168Z,101374.41
2023-05-18T02:44:53.983Z,101375.00
2023-05-18T02:47:48.363Z,101377.64
2023-05-18T02:50:28.171Z,101377.17
2023-05-18T02:53:16.039Z,101376.00
2023-05-18T02:56:08.368Z,101382.46
2023-05-18T02:58:53.543Z,101381.14
2023-05-18T03:01:37.572Z,101385.84
2023-05-18T03:04:19.047Z,101388.47
2023-05-18T03:06:57.845Z,101391.80
2023-05-18T03:09:36.531Z,101393.71
2023-05-18T03:12:12.003Z,101400.48
2023-05-18T03:14:53.120Z,101399.13
2023-05-18T03:17:30.964Z,101402.43
2023-05-18T03:20:07.682Z,101402.78
2023-05-18T03:22:46.983Z,101400.35
2023-05-18T03:25:29.772Z,101403.13
2023-05-18T03:28:11.873Z,101399.85
2023-05-18T03:30:46.078Z,101402.98
2023-05-18T03:33:17.328Z,101405.06
2023-05-18T03:35:52.873Z,101402.66
2023-05-18T03:38:25.950Z,101404.76
2023-05-18T03:41:11.858Z,101404.43
2023-05-18T03:43:53.495Z,101407.20
2023-05-18T03:46:29.332Z,101409.83
2023-05-18T03:49:11.445Z,101415.02
2023-05-18T03:51:49.823Z,101419.03
2023-05-18T03:54:22.777Z,101423.52
2023-05-18T03:56:58.689Z,101425.41
2023-05-18T03:59:43.897Z,101427.14
2023-05-18T04:02:19.315Z,101427.83
2023-05-18T04:04:55.025Z,101425.77
2023-05-18T04:07:35.388Z,101429.39
2023-05-18T04:10:12.836Z,101431.27
2023-05-18T04:12:50.571Z,101430.94
2023-05-18T04:15:28.218Z,101435.78
2023-05-18T04:18:14.245Z,101440.80
2023-05-18T04:20:52.379Z,101445.64
2023-05-18T04:23:30.264Z,101443.72
2023-05-18T04:26:11.596Z,101445.57
2023-05-18T04:29:06.197Z,101447.59
2023-05-18T04:31:54.614Z,101451.36
2023-05-18T04:34:26.962Z,101453.58
2023-05-18T04:37:05.700Z,101454.20
2023-05-18T04:39:45.132Z,101451.93
2023-05-18T04:42:36.429Z,101451.88
2023-05-18T04:45:20.124Z,101454.56
2023-05-18T04:48:05.244Z,101453.99
2023-05-18T04:50:45.683Z,101460.29
2023-05-18T04:53:28.873Z,101462.15
2023-05-18T04:56:11.168Z,101463.58
2023-05-18T04:58:52.873Z,101466.44
2023-05-18T05:01:32.030Z,101468.52
2023-05-18T05:04:18.436Z,101465.64
2023-05-18T05:06:55.137Z,101467.81
2023-05-18T05:09:34.686Z,101470.17
2023-05-18T05:12:12.609Z,101471.37
2023-05-18T05:14:49.517Z,101475.00
2023-05-18T05:17:25.702Z,101479.27
2023-05-18T05:20:02.407Z,101480.30
2023-05-18T05:22:34.108Z,101481.14
2023-05-18T05:25:06.419Z,101480.71
2023-05-18T05:28:01.627Z,101484.66
2023-05-18T05:30:33.892Z,101477.70
2023-05-18T05:33:09.710Z,101479.33
2023-05-18T05:35:51.438Z,101483.28
2023-05-18T05:38:33.809Z,101482.58
2023-05-18T05:41:04.083Z,101482.90
2023-05-18T05:44:00.012Z,101480.88
2023-05-18T05:46:35.907Z,101482.77
2023-05-18T05:49:24.661Z,101481.46
2023-05-18T05:52:09.921Z,101487.02
2023-05-18T05:55:09.785Z,101486.97
2023-05-18T05:58:11.706Z,101486.38
2023-05-18T06:00:44.169Z,101482.10
2023-05-18T06:03:35.127Z,101484.45
2023-05-18T06:06:30.976Z,101485.77
2023-05-18T06:09:05.069Z,101483.48
2023-05-18T06:11:42.392Z,101483.55
2023-05-18T06:14:15.738Z,101487.79
2023-05-18T06:17:07.109Z,101487.16
2023-05-18T06:19:46.227Z,101490.39
2023-05-18T06:22:19.078Z,101493.52
2023-05-18T06:25:28.949Z,101492.73
2023-05-18T06:28:18.793Z,101491.75
2023-05-18T06:30:54.746Z,101497.54
2023-05-18T06:33:41.163Z,101496.31
2023-05-18T06:36:14.240Z,101493.23
2023-05-18T06:38:59.598Z,101492.16
2023-05-18T06:41:31.947Z,101494.08
2023-05-18T06:44:07.051Z,101493.59
2023-05-18T06:46:45.901Z,101494.34
2023-05-18T06:49:27.891Z,101496.31
2023-05-18T06:52:02.720Z,101492.09
2023-05-18T06:54:33.553Z,101495.55
2023-05-18T06:57:07.910Z,101496.66
2023-05-18T06:59:40.882Z,101497.30
2023-05-18T07:02:15.993Z,101494.91
2023-05-18T07:04:47.315Z,101495.54
2023-05-18T07:07:23.461Z,101494.65
2023-05-18T07:09:58.726Z,101493.68
2023-05-18T07:12:34.897Z,101497.70
2023-05-18T07:15:22.800Z,101495.83
2023-05-18T07:17:57.059Z,101495.37
2023-05-18T07:20:29.470Z,101498.80
2023-05-18T07:23:10.083Z,101499.26
2023-05-18T07:25:49.587Z,101498.68
2023-05-18T07:28:23.340Z,101497.80
2023-05-18T07:30:59.685Z,101497.41
2023-05-18T07:33:31.537Z,101497.98
2023-05-18T07:36:10.084Z,101494.22
2023-05-18T07:38:41.404Z,101494.03
2023-05-18T07:41:12.927Z,101495.46
2023-05-18T07:43:44.859Z,101498.89
2023-05-18T07:46:17.649Z,101496.40
2023-05-18T07:48:51.421Z,101495.81
2023-05-18T07:51:21.609Z,101496.83
2023-05-18T07:53:55.101Z,101498.62
2023-05-18T07:56:26.285Z,101501.58
2023-05-18T07:58:56.095Z,101504.45
2023-05-18T08:01:30.544Z,101504.96
2023-05-18T08:04:04.893Z,101504.01
2023-05-18T08:06:37.294Z,101505.02
2023-05-18T08:09:17.529Z,101505.48
2023-05-18T08:11:47.716Z,101501.89
2023-05-18T08:14:18.063Z,101502.48
2023-05-18T08:16:59.215Z,101498.73
2023-05-18T08:19:42.798Z,101502.17
2023-05-18T08:22:13.164Z,101498.25
2023-05-18T08:24:53.415Z,101502.61
2023-05-18T08:27:38.115Z,101499.19
2023-05-18T08:30:19.349Z,101498.56
2023-05-18T08:32:49.537Z,101498.17
2023-05-18T08:35:19.821Z,101497.52
2023-05-18T08:37:51.120Z,101495.59
2023-05-18T08:40:37.621Z,101495.77
2023-05-18T08:43:23.334Z,101498.48
2023-05-18T08:46:31.164Z,101500.95
2023-05-18T08:49:09.780Z,101497.30
2023-05-18T08:51:42.508Z,101508.55
2023-05-18T08:54:16.133Z,101498.38
2023-05-18T08:56:47.300Z,101493.87
2023-05-18T08:59:23.599Z,101496.35
2023-05-18T09:01:55.895Z,101494.42
2023-05-18T09:04:29.962Z,101498.14
2023-05-18T09:07:02.863Z,101498.55
2023-05-18T09:09:45.587Z,101493.80
2023-05-18T09:12:21.672Z,101499.21
2023-05-18T09:15:00.645Z,101495.55
2023-05-18T09:17:32.906Z,101495.98
2023-05-18T09:20:06.110Z,101488.60
2023-05-18T09:22:44.726Z,101486.04
2023-05-18T09:25:19.960Z,101488.36
2023-05-18T09:27:54.970Z,101492.84
2023-05-18T09:30:40.205Z,101490.83
2023-05-18T09:33:22.034Z,101488.27
2023-05-18T09:35:52.357Z,101488.80
2023-05-18T09:38:25.063Z,101487.77
2023-05-18T09:40:54.578Z,101484.67
2023-05-18T09:43:24.038Z,101483.80
2023-05-18T09:45:53.460Z,101485.05
2023-05-18T09:48:25.315Z,101482.66
2023-05-18T09:50:55.009Z,101484.64
2023-05-18T09:53:24.382Z,101483.90
2023-05-18T09:55:53.896Z,101475.17
2023-05-18T09:58:35.531Z,101474.22
2023-05-18T10:01:08.352Z,101473.21
2023-05-18T10:03:41.971Z,101473.32
2023-05-18T10:06:20.292Z,101475.02
2023-05-18T10:08:53.658Z,101470.70
2023-05-18T10:11:24.051Z,101476.67
2023-05-18T10:13:58.957Z,101481.39
2023-05-18T10:16:29.818Z,101476.95
2023-05-18T10:19:12.607Z,101472.10
2023-05-18T10:21:44.760Z,101469.20
2023-05-18T10:24:28.361Z,101469.53
2023-05-18T10:27:01.752Z,101471.38
2023-05-18T10:29:38.054Z,101465.31
2023-05-18T10:32:24.640Z,101466.63
2023-05-18T10:34:58.864Z,101465.44
2023-05-18T10:37:31.404Z,101467.27
2023-05-18T10:40:05.093Z,101463.85
2023-05-18T10:42:38.272Z,101462.82
2023-05-18T10:45:14.941Z,101461.40
2023-05-18T10:47:49.143Z,101461.81
2023-05-18T10:50:21.185Z,101460.04
2023-05-18T10:52:59.067Z,101459.77
2023-05-18T10:55:32.073Z,101458.44
2023-05-18T10:58:16.987Z,101458.73
2023-05-18T11:01:03.906Z,101463.02
2023-05-18T11:03:34.494Z,101462.80
2023-05-18T11:06:15.627Z,101459.30
2023-05-18T11:09:04.446Z,101463.39
2023-05-18T11:11:58.454Z,101453.96
2023-05-18T11:14:36.441Z,101454.54
2023-05-18T11:17:25.606Z,101456.16
2023-05-18T11:20:18.432Z,101455.41
2023-05-18T11:23:06.824Z,101449.20
2023-05-18T11:25:39.171Z,101450.81
2023-05-18T11:28:13.824Z,101447.51
2023-05-18T11:30:50.442Z,101447.60
2023-05-18T11:33:36.967Z,101450.54
2023-05-18T11:36:18.165Z,101450.89
2023-05-18T11:39:07.483Z,101452.25
2023-05-18T11:41:42.126Z,101457.00
2023-05-18T11:44:13.361Z,101451.29
2023-05-18T11:47:00.247Z,101460.90
2023-05-18T11:49:37.445Z,101448.92
2023-05-18T11:52:16.654Z,101444.79
2023-05-18T11:54:49.949Z,101455.41
2023-05-18T11:57:45.090Z,101450.27
2023-05-18T12:00:32.822Z,101453.48
2023-05-18T12:03:06.503Z,101448.67
2023-05-18T12:05:40.788Z,101448.23
2023-05-18T12:08:12.886Z,101448.23
2023-05-18T12:10:52.337Z,101441.34
2023-05-18T12:13:28.403Z,101450.44
2023-05-18T12:16:02.154Z,101450.19
2023-05-18T12:18:38.053Z,101449.01
2023-05-18T12:21:09.333Z,101448.89
2023-05-18T12:23:41.865Z,101451.64
2023-05-18T12:26:15.012Z,101446.47
2023-05-18T12:28:58.273Z,101442.02
2023-05-18T12:31:28.338Z,101442.15
2023-05-18T12:34:03.814Z,101443.59
2023-05-18T12:36:33.864Z,101443.99
2023-05-18T12:39:03.318Z,101444.64
2023-05-18T12:41:33.080Z,101445.52
2023-05-18T12:44:02.685Z,101443.11
2023-05-18T12:46:32.443Z,101441.30
2023-05-18T12:49:02.085Z,101442.16
2023-05-18T12:51:38.994Z,101440.09
2023-05-18T12:54:08.796Z,101436.45
2023-05-18T12:57:02.544Z,101438.48
2023-05-18T12:59:32.183Z,101436.85
2023-05-18T13:02:01.926Z,101431.46
2023-05-18T13:04:38.115Z,101434.50
2023-05-18T13:07:12.868Z,101438.59
2023-05-18T13:09:47.123Z,101435.80
2023-05-18T13:12:17.320Z,101434.60
2023-05-18T13:14:50.808Z,101436.34
2023-05-18T13:17:25.933Z,101431.17
2023-05-18T13:19:58.820Z,101433.58
2023-05-18T13:22:29.478Z,101428.85
2023-05-18T13:25:02.658Z,101431.02
2023-05-18T13:27:38.773Z,101432.64
2023-05-18T13:30:09.399Z,101433.94
2023-05-18T13:32:39.615Z,101433.46
2023-05-18T13:35:10.329Z,101437.85
2023-05-18T13:37:41.602Z,101439.70
2023-05-18T13:40:11.408Z,101427.89
2023-05-18T13:42:41.477Z,101434.60
2023-05-18T13:45:15.184Z,101429.54
2023-05-18T13:47:52.767Z,101432.80
2023-05-18T13:50:30.945Z,101428.36
2023-05-18T13:53:07.922Z,101430.29
2023-05-18T13:55:49.481Z,101432.50
2023-05-18T13:58:29.410Z,101426.83
2023-05-18T14:01:06.628Z,101431.16
2023-05-18T14:03:37.090Z,101433.35
2023-05-18T14:06:10.791Z,101429.88
2023-05-18T14:09:04.700Z,101429.04
2023-05-18T14:11:38.847Z,101436.47
2023-05-18T14:14:12.577Z,101435.72
2023-05-18T14:16:53.289Z,101425.63
2023-05-18T14:22:57.607Z,101422.27
2023-05-18T14:25:38.142Z,101420.05
2023-05-18T14:28:12.254Z,101417.73
2023-05-18T14:30:46.121Z,101418.05
2023-05-18T14:33:47.448Z,101414.37
2023-05-18T14:36:21.829Z,101407.57
2023-05-18T14:38:54.930Z,101410.21
2023-05-18T14:42:13.993Z,101412.89
2023-05-18T14:44:53.276Z,101411.25
2023-05-18T14:47:40.937Z,101410.95
2023-05-18T14:50:21.222Z,101415.90
2023-05-18T14:53:06.072Z,101413.96
2023-05-18T14:56:29.846Z,101413.82
2023-05-18T14:59:27.073Z,101410.75
2023-05-18T15:01:59.603Z,101408.30
2023-05-18T15:04:33.075Z,101410.93
2023-05-18T15:07:06.276Z,101411.92
2023-05-18T15:09:41.528Z,101408.73
2023-05-18T15:12:21.572Z,101413.88
2023-05-18T15:14:56.999Z,101410.77
2023-05-18T15:17:27.387Z,101410.41
2023-05-18T15:19:58.655Z,101408.05
2023-05-18T15:22:29.595Z,101410.41
2023-05-18T15:25:07.698Z,101407.35
2023-05-18T15:27:40.422Z,101413.99
2023-05-18T15:30:13.483Z,101418.55
2023-05-18T15:32:53.766Z,101422.80
2023-05-18T15:35:39.215Z,101425.31
2023-05-18T15:38:14.776Z,101418.38
2023-05-18T15:41:14.643Z,101425.81
2023-05-18T15:43:57.933Z,101422.50
2023-05-18T15:46:36.905Z,101427.34
2023-05-18T15:49:08.590Z,101424.77
2023-05-18T15:51:38.700Z,101420.67
2023-05-18T15:54:09.429Z,101421.41
2023-05-18T15:56:40.241Z,101422.42
2023-05-18T15:59:14.979Z,101421.71
2023-05-18T16:02:00.141Z,101421.55
2023-05-18T16:04:47.073Z,101420.71
2023-05-18T16:07:45.940Z,101422.23
2023-05-18T16:10:47.268Z,101424.36
2023-05-18T16:13:27.616Z,101425.74
2023-05-18T16:16:01.112Z,101424.36
2023-05-18T16:18:33.534Z,101425.70
2023-05-18T16:21:20.032Z,101422.43
2023-05-18T16:23:57.676Z,101424.85
2023-05-18T16:26:39.771Z,101424.14
2023-05-18T16:29:10.818Z,101425.32
2023-05-18T16:31:55.518Z,101426.84
2023-05-18T16:34:31.877Z,101423.63
2023-05-18T16:37:11.072Z,101426.23
2023-05-18T16:39:49.638Z,101421.66
2023-05-18T16:42:36.695Z,101421.55
2023-05-18T16:45:10.066Z,101422.95
2023-05-18T16:47:45.349Z,101425.13
2023-05-18T16:50:20.128Z,101426.02
2023-05-18T16:53:40.326Z,101424.36
2023-05-18T16:56:45.853Z,101425.54
2023-05-18T16:59:28.100Z,101430.41
2023-05-18T17:02:01.878Z,101432.83
2023-05-18T17:04:41.903Z,101433.81
2023-05-18T17:07:21.190Z,101436.66
2023-05-18T17:10:00.409Z,101439.95
2023-05-18T17:12:37.201Z,101436.27
2023-05-18T17:15:57.316Z,101440.33
2023-05-18T17:18:31.985Z,101439.76
2023-05-18T17:21:08.691Z,101436.36
2023-05-18T17:23:53.559Z,101439.42
2023-05-18T17:27:17.221Z,101443.84
2023-05-18T17:30:04.536Z,101445.34
2023-05-18T17:32:39.320Z,101443.98
2023-05-18T17:35:26.387Z,101442.48
2023-05-18T17:38:18.940Z,101444.23
2023-05-18T17:40:56.933Z,101445.80
2023-05-18T17:43:33.516Z,101445.63
2023-05-18T17:46:13.035Z,101443.55
2023-05-18T17:48:50.445Z,101443.45
2023-05-18T17:51:32.020Z,101447.02
2023-05-18T17:54:07.503Z,101453.68
2023-05-18T17:57:00.826Z,101455.87
2023-05-18T17:59:50.358Z,101455.19
2023-05-18T18:02:44.899Z,101459.05
2023-05-18T18:05:50.961Z,101457.29
2023-05-18T18:08:35.602Z,101456.99
2023-05-18T18:11:10.541Z,101454.78
2023-05-18T18:14:41.917Z,101455.33
2023-05-18T18:18:03.929Z,101453.05
2023-05-18T18:24:16.384Z,101451.62
2023-05-18T18:33:13.253Z,101453.64
2023-05-18T18:35:11.470Z,101455.48
2023-05-18T18:38:02.499Z,101461.69
2023-05-18T18:40:43.503Z,101462.95
2023-05-18T18:43:27.103Z,101460.03
2023-05-18T18:46:30.934Z,101466.79
2023-05-18T18:49:12.628Z,101470.82
2023-05-18T18:52:03.021Z,101470.52
2023-05-18T18:55:04.654Z,101471.68
2023-05-18T18:57:42.192Z,101475.06
2023-05-18T19:00:45.674Z,101476.17
2023-05-18T19:03:53.353Z,101476.63
2023-05-18T19:06:41.125Z,101479.98
2023-05-18T19:09:33.341Z,101479.00
2023-05-18T19:12:31.596Z,101486.23
2023-05-18T19:15:27.346Z,101487.02
2023-05-18T19:18:04.306Z,101487.30
2023-05-18T19:20:54.128Z,101489.06
2023-05-18T19:23:30.269Z,101491.58
2023-05-18T19:26:02.556Z,101492.27
2023-05-18T19:28:38.769Z,101493.56
2023-05-18T19:31:29.028Z,101498.20
2023-05-18T19:34:18.764Z,101500.50
2023-05-18T19:36:54.880Z,101500.94
2023-05-18T19:39:36.911Z,101503.11
2023-05-18T19:45:36.934Z,101499.88
2023-05-18T19:48:12.238Z,101500.75
2023-05-18T19:50:50.498Z,101501.09
2023-05-18T19:53:37.310Z,101501.69
2023-05-18T19:56:15.440Z,101503.48
2023-05-18T19:58:58.993Z,101503.08
2023-05-18T20:14:05.071Z,101502.73
2023-05-18T20:16:42.615Z,101501.20
2023-05-18T20:19:20.046Z,101499.80
2023-05-18T20:21:50.714Z,101502.42
2023-05-18T20:24:28.388Z,101504.00
2023-05-18T20:27:08.665Z,101508.38
2023-05-18T20:29:59.407Z,101510.92
2023-05-18T20:32:30.815Z,101512.06
2023-05-18T20:35:03.989Z,101511.28
2023-05-18T20:37:35.071Z,101513.48
2023-05-18T20:40:09.687Z,101514.20
2023-05-18T20:42:40.965Z,101514.25
2023-05-18T20:45:18.115Z,101514.62
2023-05-18T20:48:02.092Z,101514.30
2023-05-18T20:50:33.909Z,101516.30
2023-05-18T20:53:13.056Z,101517.24
2023-05-18T20:55:50.520Z,101518.18
2023-05-18T20:58:21.943Z,101521.05
2023-05-18T21:00:56.695Z,101524.58
2023-05-18T21:03:39.150Z,101525.95
2023-05-18T21:06:13.254Z,101526.48
2023-05-18T21:08:46.020Z,101525.79
2023-05-18T21:11:16.555Z,101521.27
2023-05-18T21:13:49.287Z,101520.36
2023-05-18T21:16:19.607Z,101516.61
2023-05-18T21:18:50.079Z,101517.17
2023-05-18T21:21:21.188Z,101520.14
2023-05-18T21:23:51.385Z,101519.44
2023-05-18T21:26:22.259Z,101522.75
2023-05-18T21:28:52.721Z,101523.98
2023-05-18T21:31:22.958Z,101525.58
2023-05-18T21:33:53.269Z,101526.83
2023-05-18T21:36:35.885Z,101527.02
2023-05-18T21:39:09.806Z,101526.49
2023-05-18T21:41:40.816Z,101528.06
2023-05-18T21:44:11.692Z,101531.08
2023-05-18T21:46:41.714Z,101531.02
2023-05-18T21:49:13.572Z,101533.02
2023-05-18T21:51:43.998Z,101534.59
2023-05-18T21:54:14.258Z,101537.39
2023-05-18T21:56:44.724Z,101542.25
2023-05-18T21:59:15.341Z,101539.95
2023-05-18T22:01:45.593Z,101537.91
2023-05-18T22:04:15.951Z,101536.89
2023-05-18T22:06:47.735Z,101536.86
2023-05-18T22:09:18.187Z,101533.02
2023-05-18T22:11:48.137Z,101534.41
2023-05-18T22:14:23.339Z,101538.24
2023-05-18T22:16:53.849Z,101543.98
2023-05-18T22:19:25.246Z,101539.62
2023-05-18T22:21:55.940Z,101540.47
2023-05-18T22:24:26.187Z,101538.05
2023-05-18T22:26:56.827Z,101539.08
2023-05-18T22:29:29.730Z,101539.05
2023-05-18T22:32:00.281Z,101538.18
2023-05-18T22:34:33.978Z,101538.16
2023-05-18T22:37:13.741Z,101540.27
2023-05-18T22:39:44.887Z,101539.62
2023-05-18T22:42:15.283Z,101538.09
2023-05-18T22:44:48.901Z,101536.02
2023-05-18T22:47:21.940Z,101535.03
2023-05-18T22:49:53.227Z,101534.91
2023-05-18T22:52:35.642Z,101537.89
2023-05-18T22:55:16.880Z,101535.15
2023-05-18T22:57:47.703Z,101535.71
2023-05-18T23:00:18.508Z,101537.84
2023-05-18T23:02:48.444Z,101535.70
2023-05-18T23:05:22.203Z,101532.21
2023-05-18T23:07:52.677Z,101531.86
2023-05-18T23:10:26.402Z,101530.45
2023-05-18T23:13:02.346Z,101528.54
2023-05-18T23:15:33.634Z,101529.35
2023-05-18T23:18:09.615Z,101530.23
2023-05-18T23:20:40.101Z,101528.11
2023-05-18T23:23:15.018Z,101529.79
2023-05-18T23:25:50.924Z,101528.36
2023-05-18T23:28:21.474Z,101531.98
2023-05-18T23:30:51.849Z,101530.58
2023-05-18T23:33:22.176Z,101530.23
2023-05-18T23:35:56.021Z,101529.41
2023-05-18T23:38:35.232Z,101530.66
2023-05-18T23:41:08.566Z,101531.72
2023-05-18T23:43:40.022Z,101527.69
2023-05-18T23:46:11.296Z,101531.06
2023-05-18T23:48:50.777Z,101531.95
2023-05-18T23:51:30.275Z,101530.35
2023-05-18T23:54:01.528Z,101532.74
2023-05-18T23:56:33.689Z,101533.56
2023-05-18T23:59:04.507Z,101535.97
